sensor_id;sensor_type;location;lat;lon;timestamp;P1;durP1;ratioP1;P2;durP2;ratioP2
13435;SDS011;6790;49.520;8.504;2023-08-24T00:00:50;24.85;;;23.02;;
13435;SDS011;6790;49.520;8.504;2023-08-24T00:03:16;23.85;;;22.10;;
13435;SDS011;6790;49.520;8.504;2023-08-24T00:05:41;21.95;;;20.48;;
13435;SDS011;6790;49.520;8.504;2023-08-24T00:08:08;23.60;;;21.98;;
13435;SDS011;6790;49.520;8.504;2023-08-24T00:10:35;25.40;;;23.83;;
13435;SDS011;6790;49.520;8.504;2023-08-24T00:13:02;20.90;;;19.35;;
13435;SDS011;6790;49.520;8.504;2023-08-24T00:15:28;23.13;;;21.52;;
13435;SDS011;6790;49.520;8.504;2023-08-24T00:17:55;22.52;;;21.02;;
13435;SDS011;6790;49.520;8.504;2023-08-24T00:20:20;16.85;;;15.73;;
13435;SDS011;6790;49.520;8.504;2023-08-24T00:22:47;22.63;;;21.00;;
13435;SDS011;6790;49.520;8.504;2023-08-24T00:25:13;13.73;;;12.73;;
13435;SDS011;6790;49.520;8.504;2023-08-24T00:27:40;22.47;;;21.07;;
13435;SDS011;6790;49.520;8.504;2023-08-24T00:30:06;26.60;;;24.60;;
13435;SDS011;6790;49.520;8.504;2023-08-24T00:32:33;28.80;;;26.53;;
13435;SDS011;6790;49.520;8.504;2023-08-24T00:35:03;19.70;;;18.37;;
13435;SDS011;6790;49.520;8.504;2023-08-24T00:37:33;27.03;;;25.03;;
13435;SDS011;6790;49.520;8.504;2023-08-24T00:40:02;18.00;;;16.48;;
13435;SDS011;6790;49.520;8.504;2023-08-24T00:42:30;18.65;;;17.30;;
13435;SDS011;6790;49.520;8.504;2023-08-24T00:44:57;21.05;;;19.35;;
13435;SDS011;6790;49.520;8.504;2023-08-24T00:47:23;18.38;;;17.08;;
13435;SDS011;6790;49.520;8.504;2023-08-24T00:49:49;23.98;;;22.45;;
13435;SDS011;6790;49.520;8.504;2023-08-24T00:52:16;21.73;;;20.27;;
13435;SDS011;6790;49.520;8.504;2023-08-24T00:54:42;21.60;;;18.90;;
13435;SDS011;6790;49.520;8.504;2023-08-24T00:57:07;27.90;;;26.10;;
13435;SDS011;6790;49.520;8.504;2023-08-24T00:59:33;29.88;;;27.75;;
13435;SDS011;6790;49.520;8.504;2023-08-24T01:01:59;21.52;;;20.13;;
13435;SDS011;6790;49.520;8.504;2023-08-24T01:04:27;24.95;;;23.35;;
13435;SDS011;6790;49.520;8.504;2023-08-24T01:06:52;25.48;;;23.80;;
13435;SDS011;6790;49.520;8.504;2023-08-24T01:09:18;21.25;;;19.95;;
13435;SDS011;6790;49.520;8.504;2023-08-24T01:11:58;22.35;;;20.80;;
13435;SDS011;6790;49.520;8.504;2023-08-24T01:17:17;26.17;;;24.45;;
13435;SDS011;6790;49.520;8.504;2023-08-24T01:19:47;27.13;;;25.30;;
13435;SDS011;6790;49.520;8.504;2023-08-24T01:22:20;23.55;;;21.55;;
13435;SDS011;6790;49.520;8.504;2023-08-24T01:24:53;22.23;;;20.60;;
13435;SDS011;6790;49.520;8.504;2023-08-24T01:27:32;20.33;;;18.88;;
13435;SDS011;6790;49.520;8.504;2023-08-24T01:30:02;20.80;;;19.10;;
13435;SDS011;6790;49.520;8.504;2023-08-24T01:32:32;21.25;;;19.77;;
13435;SDS011;6790;49.520;8.504;2023-08-24T01:35:01;21.52;;;19.83;;
13435;SDS011;6790;49.520;8.504;2023-08-24T01:37:27;19.92;;;18.60;;
13435;SDS011;6790;49.520;8.504;2023-08-24T01:43:25;16.55;;;15.23;;
13435;SDS011;6790;49.520;8.504;2023-08-24T01:45:58;25.50;;;23.83;;
13435;SDS011;6790;49.520;8.504;2023-08-24T01:48:25;22.83;;;21.27;;
13435;SDS011;6790;49.520;8.504;2023-08-24T01:50:51;20.40;;;18.90;;
13435;SDS011;6790;49.520;8.504;2023-08-24T01:53:17;20.60;;;19.17;;
13435;SDS011;6790;49.520;8.504;2023-08-24T01:55:45;28.00;;;26.17;;
13435;SDS011;6790;49.520;8.504;2023-08-24T01:58:11;21.17;;;19.70;;
13435;SDS011;6790;49.520;8.504;2023-08-24T02:00:36;23.88;;;22.25;;
13435;SDS011;6790;49.520;8.504;2023-08-24T02:03:03;27.93;;;26.10;;
13435;SDS011;6790;49.520;8.504;2023-08-24T02:05:29;22.38;;;20.67;;
13435;SDS011;6790;49.520;8.504;2023-08-24T02:07:55;19.73;;;18.33;;
13435;SDS011;6790;49.520;8.504;2023-08-24T02:10:22;21.10;;;19.73;;
13435;SDS011;6790;49.520;8.504;2023-08-24T02:12:48;31.60;;;29.40;;
13435;SDS011;6790;49.520;8.504;2023-08-24T02:15:14;20.95;;;19.10;;
13435;SDS011;6790;49.520;8.504;2023-08-24T02:17:39;23.80;;;22.10;;
13435;SDS011;6790;49.520;8.504;2023-08-24T02:20:06;24.40;;;22.63;;
13435;SDS011;6790;49.520;8.504;2023-08-24T02:22:33;22.20;;;20.80;;
13435;SDS011;6790;49.520;8.504;2023-08-24T02:24:59;19.48;;;18.13;;
13435;SDS011;6790;49.520;8.504;2023-08-24T02:27:26;25.70;;;23.97;;
13435;SDS011;6790;49.520;8.504;2023-08-24T02:29:52;23.23;;;21.77;;
13435;SDS011;6790;49.520;8.504;2023-08-24T02:32:17;21.42;;;19.83;;
13435;SDS011;6790;49.520;8.504;2023-08-24T02:34:43;18.60;;;17.13;;
13435;SDS011;6790;49.520;8.504;2023-08-24T02:37:09;24.70;;;22.83;;
13435;SDS011;6790;49.520;8.504;2023-08-24T02:39:35;23.85;;;21.95;;
13435;SDS011;6790;49.520;8.504;2023-08-24T02:42:01;24.25;;;22.60;;
13435;SDS011;6790;49.520;8.504;2023-08-24T02:44:27;21.58;;;20.00;;
13435;SDS011;6790;49.520;8.504;2023-08-24T02:46:53;24.02;;;22.35;;
13435;SDS011;6790;49.520;8.504;2023-08-24T02:49:19;25.55;;;23.88;;
13435;SDS011;6790;49.520;8.504;2023-08-24T02:51:45;18.23;;;16.95;;
13435;SDS011;6790;49.520;8.504;2023-08-24T02:54:11;22.02;;;20.55;;
13435;SDS011;6790;49.520;8.504;2023-08-24T02:56:37;23.93;;;22.00;;
13435;SDS011;6790;49.520;8.504;2023-08-24T02:59:02;23.53;;;21.80;;
13435;SDS011;6790;49.520;8.504;2023-08-24T03:01:28;20.83;;;19.40;;
13435;SDS011;6790;49.520;8.504;2023-08-24T03:03:54;31.98;;;29.60;;
13435;SDS011;6790;49.520;8.504;2023-08-24T03:06:20;19.87;;;18.43;;
13435;SDS011;6790;49.520;8.504;2023-08-24T03:08:48;27.90;;;25.93;;
13435;SDS011;6790;49.520;8.504;2023-08-24T03:11:14;24.20;;;22.60;;
13435;SDS011;6790;49.520;8.504;2023-08-24T03:13:40;20.15;;;18.75;;
13435;SDS011;6790;49.520;8.504;2023-08-24T03:16:06;23.35;;;21.80;;
13435;SDS011;6790;49.520;8.504;2023-08-24T03:18:32;28.40;;;26.60;;
13435;SDS011;6790;49.520;8.504;2023-08-24T03:20:59;33.22;;;30.90;;
13435;SDS011;6790;49.520;8.504;2023-08-24T03:23:25;34.92;;;32.63;;
13435;SDS011;6790;49.520;8.504;2023-08-24T03:25:51;33.97;;;31.45;;
13435;SDS011;6790;49.520;8.504;2023-08-24T03:28:17;32.30;;;30.15;;
13435;SDS011;6790;49.520;8.504;2023-08-24T03:30:47;28.10;;;26.23;;
13435;SDS011;6790;49.520;8.504;2023-08-24T03:33:15;22.83;;;20.98;;
13435;SDS011;6790;49.520;8.504;2023-08-24T03:35:41;22.20;;;20.70;;
13435;SDS011;6790;49.520;8.504;2023-08-24T03:38:07;22.67;;;21.02;;
13435;SDS011;6790;49.520;8.504;2023-08-24T03:40:33;24.03;;;22.50;;
13435;SDS011;6790;49.520;8.504;2023-08-24T03:43:00;22.40;;;20.80;;
13435;SDS011;6790;49.520;8.504;2023-08-24T03:45:27;17.10;;;15.80;;
13435;SDS011;6790;49.520;8.504;2023-08-24T03:47:53;19.55;;;17.88;;
13435;SDS011;6790;49.520;8.504;2023-08-24T03:50:19;22.17;;;20.60;;
13435;SDS011;6790;49.520;8.504;2023-08-24T03:52:45;18.40;;;17.15;;
13435;SDS011;6790;49.520;8.504;2023-08-24T03:55:10;22.13;;;20.10;;
13435;SDS011;6790;49.520;8.504;2023-08-24T03:57:36;17.23;;;15.95;;
13435;SDS011;6790;49.520;8.504;2023-08-24T04:00:03;26.85;;;25.08;;
13435;SDS011;6790;49.520;8.504;2023-08-24T04:02:36;21.55;;;20.05;;
13435;SDS011;6790;49.520;8.504;2023-08-24T04:05:03;19.63;;;18.10;;
13435;SDS011;6790;49.520;8.504;2023-08-24T04:07:29;18.70;;;17.25;;
13435;SDS011;6790;49.520;8.504;2023-08-24T04:09:56;16.27;;;15.07;;
13435;SDS011;6790;49.520;8.504;2023-08-24T04:12:22;20.98;;;19.40;;
13435;SDS011;6790;49.520;8.504;2023-08-24T04:14:47;16.45;;;15.23;;
13435;SDS011;6790;49.520;8.504;2023-08-24T04:17:13;26.08;;;24.20;;
13435;SDS011;6790;49.520;8.504;2023-08-24T04:19:39;27.13;;;24.92;;
13435;SDS011;6790;49.520;8.504;2023-08-24T04:22:05;23.15;;;21.52;;
13435;SDS011;6790;49.520;8.504;2023-08-24T04:24:30;20.98;;;19.58;;
13435;SDS011;6790;49.520;8.504;2023-08-24T04:26:56;20.45;;;18.98;;
13435;SDS011;6790;49.520;8.504;2023-08-24T04:29:22;27.50;;;25.50;;
13435;SDS011;6790;49.520;8.504;2023-08-24T04:31:47;25.67;;;23.55;;
13435;SDS011;6790;49.520;8.504;2023-08-24T04:34:13;18.30;;;16.92;;
13435;SDS011;6790;49.520;8.504;2023-08-24T04:36:39;17.42;;;16.13;;
13435;SDS011;6790;49.520;8.504;2023-08-24T04:39:04;13.00;;;12.00;;
13435;SDS011;6790;49.520;8.504;2023-08-24T04:41:30;20.13;;;18.67;;
13435;SDS011;6790;49.520;8.504;2023-08-24T04:43:56;22.10;;;20.35;;
13435;SDS011;6790;49.520;8.504;2023-08-24T04:46:21;15.60;;;14.25;;
13435;SDS011;6790;49.520;8.504;2023-08-24T04:48:47;21.83;;;20.05;;
13435;SDS011;6790;49.520;8.504;2023-08-24T04:51:13;19.08;;;17.30;;
13435;SDS011;6790;49.520;8.504;2023-08-24T04:53:39;17.08;;;15.77;;
13435;SDS011;6790;49.520;8.504;2023-08-24T04:56:05;23.30;;;21.50;;
13435;SDS011;6790;49.520;8.504;2023-08-24T04:58:32;19.83;;;18.05;;
13435;SDS011;6790;49.520;8.504;2023-08-24T05:00:58;20.45;;;18.88;;
13435;SDS011;6790;49.520;8.504;2023-08-24T05:03:24;21.88;;;20.10;;
13435;SDS011;6790;49.520;8.504;2023-08-24T05:05:49;17.27;;;15.85;;
13435;SDS011;6790;49.520;8.504;2023-08-24T05:08:15;22.23;;;20.10;;
13435;SDS011;6790;49.520;8.504;2023-08-24T05:10:41;26.83;;;24.83;;
13435;SDS011;6790;49.520;8.504;2023-08-24T05:13:06;16.38;;;15.05;;
13435;SDS011;6790;49.520;8.504;2023-08-24T05:15:32;21.98;;;20.48;;
13435;SDS011;6790;49.520;8.504;2023-08-24T05:17:58;26.65;;;24.80;;
13435;SDS011;6790;49.520;8.504;2023-08-24T05:20:24;25.58;;;23.70;;
13435;SDS011;6790;49.520;8.504;2023-08-24T05:22:51;26.48;;;24.50;;
13435;SDS011;6790;49.520;8.504;2023-08-24T05:25:19;24.08;;;22.35;;
13435;SDS011;6790;49.520;8.504;2023-08-24T05:27:46;22.50;;;20.83;;
13435;SDS011;6790;49.520;8.504;2023-08-24T05:30:12;36.38;;;33.72;;
13435;SDS011;6790;49.520;8.504;2023-08-24T05:32:38;32.17;;;29.83;;
13435;SDS011;6790;49.520;8.504;2023-08-24T05:35:04;33.25;;;31.02;;
13435;SDS011;6790;49.520;8.504;2023-08-24T05:37:31;31.05;;;28.98;;
13435;SDS011;6790;49.520;8.504;2023-08-24T05:39:57;29.00;;;26.90;;
13435;SDS011;6790;49.520;8.504;2023-08-24T05:42:24;22.65;;;21.17;;
13435;SDS011;6790;49.520;8.504;2023-08-24T05:47:22;21.52;;;19.98;;
13435;SDS011;6790;49.520;8.504;2023-08-24T05:49:47;22.77;;;21.08;;
13435;SDS011;6790;49.520;8.504;2023-08-24T05:52:13;23.02;;;21.20;;
13435;SDS011;6790;49.520;8.504;2023-08-24T05:54:39;17.58;;;16.35;;
13435;SDS011;6790;49.520;8.504;2023-08-24T05:57:05;20.63;;;19.20;;
13435;SDS011;6790;49.520;8.504;2023-08-24T05:59:32;24.50;;;22.85;;
13435;SDS011;6790;49.520;8.504;2023-08-24T06:01:58;24.25;;;22.65;;
13435;SDS011;6790;49.520;8.504;2023-08-24T06:04:24;22.42;;;20.85;;
13435;SDS011;6790;49.520;8.504;2023-08-24T06:06:49;27.13;;;24.95;;
13435;SDS011;6790;49.520;8.504;2023-08-24T06:09:15;33.15;;;31.02;;
13435;SDS011;6790;49.520;8.504;2023-08-24T06:11:40;29.58;;;27.70;;
13435;SDS011;6790;49.520;8.504;2023-08-24T06:14:06;21.05;;;19.23;;
13435;SDS011;6790;49.520;8.504;2023-08-24T06:16:32;35.85;;;33.22;;
13435;SDS011;6790;49.520;8.504;2023-08-24T06:18:58;27.48;;;25.60;;
13435;SDS011;6790;49.520;8.504;2023-08-24T06:21:24;26.98;;;24.90;;
13435;SDS011;6790;49.520;8.504;2023-08-24T06:23:49;24.27;;;22.70;;
13435;SDS011;6790;49.520;8.504;2023-08-24T06:26:15;26.08;;;24.20;;
13435;SDS011;6790;49.520;8.504;2023-08-24T06:28:42;23.75;;;22.10;;
13435;SDS011;6790;49.520;8.504;2023-08-24T06:31:08;28.52;;;26.52;;
13435;SDS011;6790;49.520;8.504;2023-08-24T06:33:34;29.45;;;27.42;;
13435;SDS011;6790;49.520;8.504;2023-08-24T06:36:01;29.08;;;26.88;;
13435;SDS011;6790;49.520;8.504;2023-08-24T06:38:30;32.30;;;30.17;;
13435;SDS011;6790;49.520;8.504;2023-08-24T06:40:59;25.52;;;23.45;;
13435;SDS011;6790;49.520;8.504;2023-08-24T06:43:25;25.67;;;23.92;;
13435;SDS011;6790;49.520;8.504;2023-08-24T06:45:53;28.08;;;25.92;;
13435;SDS011;6790;49.520;8.504;2023-08-24T06:48:20;25.80;;;23.80;;
13435;SDS011;6790;49.520;8.504;2023-08-24T06:50:45;25.02;;;23.15;;
13435;SDS011;6790;49.520;8.504;2023-08-24T06:53:11;29.52;;;27.25;;
13435;SDS011;6790;49.520;8.504;2023-08-24T06:55:37;24.98;;;23.25;;
13435;SDS011;6790;49.520;8.504;2023-08-24T06:58:02;27.73;;;25.38;;
13435;SDS011;6790;49.520;8.504;2023-08-24T07:00:31;26.38;;;23.65;;
13435;SDS011;6790;49.520;8.504;2023-08-24T07:02:58;29.92;;;28.00;;
13435;SDS011;6790;49.520;8.504;2023-08-24T07:05:24;26.25;;;24.40;;
13435;SDS011;6790;49.520;8.504;2023-08-24T07:07:50;25.10;;;23.42;;
13435;SDS011;6790;49.520;8.504;2023-08-24T07:10:16;23.80;;;21.55;;
13435;SDS011;6790;49.520;8.504;2023-08-24T07:12:42;32.05;;;29.77;;
13435;SDS011;6790;49.520;8.504;2023-08-24T07:15:10;31.63;;;29.48;;
13435;SDS011;6790;49.520;8.504;2023-08-24T07:17:39;23.95;;;22.00;;
13435;SDS011;6790;49.520;8.504;2023-08-24T07:20:05;30.80;;;28.75;;
13435;SDS011;6790;49.520;8.504;2023-08-24T07:22:36;31.52;;;29.35;;
13435;SDS011;6790;49.520;8.504;2023-08-24T07:25:02;26.08;;;24.35;;
13435;SDS011;6790;49.520;8.504;2023-08-24T07:27:31;25.55;;;23.80;;
13435;SDS011;6790;49.520;8.504;2023-08-24T07:29:58;35.38;;;33.13;;
13435;SDS011;6790;49.520;8.504;2023-08-24T07:32:25;32.72;;;30.25;;
13435;SDS011;6790;49.520;8.504;2023-08-24T07:34:52;30.40;;;28.27;;
13435;SDS011;6790;49.520;8.504;2023-08-24T07:37:17;39.08;;;36.30;;
13435;SDS011;6790;49.520;8.504;2023-08-24T07:39:43;33.70;;;31.38;;
13435;SDS011;6790;49.520;8.504;2023-08-24T07:42:09;27.05;;;25.33;;
13435;SDS011;6790;49.520;8.504;2023-08-24T07:44:34;41.83;;;38.83;;
13435;SDS011;6790;49.520;8.504;2023-08-24T07:47:01;36.45;;;34.05;;
13435;SDS011;6790;49.520;8.504;2023-08-24T07:49:27;43.78;;;41.05;;
13435;SDS011;6790;49.520;8.504;2023-08-24T07:51:53;34.00;;;31.90;;
13435;SDS011;6790;49.520;8.504;2023-08-24T07:54:19;39.65;;;37.08;;
13435;SDS011;6790;49.520;8.504;2023-08-24T07:56:45;34.95;;;32.65;;
13435;SDS011;6790;49.520;8.504;2023-08-24T07:59:11;41.58;;;38.88;;
13435;SDS011;6790;49.520;8.504;2023-08-24T08:01:36;40.15;;;37.65;;
13435;SDS011;6790;49.520;8.504;2023-08-24T08:04:02;36.63;;;34.05;;
13435;SDS011;6790;49.520;8.504;2023-08-24T08:06:28;43.38;;;40.40;;
13435;SDS011;6790;49.520;8.504;2023-08-24T08:08:53;38.33;;;36.03;;
13435;SDS011;6790;49.520;8.504;2023-08-24T08:11:19;38.55;;;36.08;;
13435;SDS011;6790;49.520;8.504;2023-08-24T08:13:46;33.65;;;31.33;;
13435;SDS011;6790;49.520;8.504;2023-08-24T08:16:11;42.63;;;39.78;;
13435;SDS011;6790;49.520;8.504;2023-08-24T08:18:37;45.53;;;42.40;;
13435;SDS011;6790;49.520;8.504;2023-08-24T08:21:37;42.15;;;39.50;;
13435;SDS011;6790;49.520;8.504;2023-08-24T08:23:55;41.25;;;38.75;;
13435;SDS011;6790;49.520;8.504;2023-08-24T08:26:21;46.50;;;43.13;;
13435;SDS011;6790;49.520;8.504;2023-08-24T08:28:47;42.67;;;39.97;;
13435;SDS011;6790;49.520;8.504;2023-08-24T08:31:12;41.80;;;38.95;;
13435;SDS011;6790;49.520;8.504;2023-08-24T08:33:38;42.47;;;39.65;;
13435;SDS011;6790;49.520;8.504;2023-08-24T08:36:04;43.70;;;40.92;;
13435;SDS011;6790;49.520;8.504;2023-08-24T08:38:29;39.45;;;36.92;;
13435;SDS011;6790;49.520;8.504;2023-08-24T08:40:56;41.95;;;39.10;;
13435;SDS011;6790;49.520;8.504;2023-08-24T08:43:29;47.17;;;44.10;;
13435;SDS011;6790;49.520;8.504;2023-08-24T08:45:55;56.03;;;52.70;;
13435;SDS011;6790;49.520;8.504;2023-08-24T08:48:23;48.35;;;44.97;;
13435;SDS011;6790;49.520;8.504;2023-08-24T08:50:50;42.63;;;40.03;;
13435;SDS011;6790;49.520;8.504;2023-08-24T08:53:21;42.10;;;39.35;;
13435;SDS011;6790;49.520;8.504;2023-08-24T08:55:49;41.00;;;38.28;;
13435;SDS011;6790;49.520;8.504;2023-08-24T08:58:18;41.28;;;38.65;;
13435;SDS011;6790;49.520;8.504;2023-08-24T09:00:46;40.75;;;38.22;;
13435;SDS011;6790;49.520;8.504;2023-08-24T09:03:13;52.63;;;49.38;;
13435;SDS011;6790;49.520;8.504;2023-08-24T09:05:42;54.53;;;51.03;;
13435;SDS011;6790;49.520;8.504;2023-08-24T09:08:08;53.03;;;49.70;;
13435;SDS011;6790;49.520;8.504;2023-08-24T09:10:35;49.88;;;46.60;;
13435;SDS011;6790;49.520;8.504;2023-08-24T09:13:00;53.85;;;50.67;;
13435;SDS011;6790;49.520;8.504;2023-08-24T09:15:26;62.75;;;58.58;;
13435;SDS011;6790;49.520;8.504;2023-08-24T09:17:53;58.50;;;54.97;;
13435;SDS011;6790;49.520;8.504;2023-08-24T09:20:27;55.35;;;51.95;;
13435;SDS011;6790;49.520;8.504;2023-08-24T09:22:54;53.78;;;50.47;;
13435;SDS011;6790;49.520;8.504;2023-08-24T09:25:22;51.78;;;48.15;;
13435;SDS011;6790;49.520;8.504;2023-08-24T09:27:58;60.53;;;56.88;;
13435;SDS011;6790;49.520;8.504;2023-08-24T09:30:30;60.13;;;56.28;;
13435;SDS011;6790;49.520;8.504;2023-08-24T09:33:10;53.90;;;50.85;;
13435;SDS011;6790;49.520;8.504;2023-08-24T09:35:36;58.35;;;54.67;;
13435;SDS011;6790;49.520;8.504;2023-08-24T09:40:51;56.08;;;52.70;;
13435;SDS011;6790;49.520;8.504;2023-08-24T09:43:19;63.78;;;60.08;;
13435;SDS011;6790;49.520;8.504;2023-08-24T09:45:56;66.78;;;62.75;;
13435;SDS011;6790;49.520;8.504;2023-08-24T09:48:22;55.75;;;52.42;;
13435;SDS011;6790;49.520;8.504;2023-08-24T09:50:50;58.65;;;54.63;;
13435;SDS011;6790;49.520;8.504;2023-08-24T09:53:17;72.28;;;67.60;;
13435;SDS011;6790;49.520;8.504;2023-08-24T09:58:40;64.28;;;60.38;;
13435;SDS011;6790;49.520;8.504;2023-08-24T10:01:08;63.25;;;59.22;;
13435;SDS011;6790;49.520;8.504;2023-08-24T10:03:34;57.53;;;53.95;;
13435;SDS011;6790;49.520;8.504;2023-08-24T10:06:05;67.25;;;63.28;;
13435;SDS011;6790;49.520;8.504;2023-08-24T10:08:36;61.40;;;57.83;;
13435;SDS011;6790;49.520;8.504;2023-08-24T10:11:05;57.75;;;54.20;;
13435;SDS011;6790;49.520;8.504;2023-08-24T10:16:12;61.55;;;57.90;;
13435;SDS011;6790;49.520;8.504;2023-08-24T10:18:40;63.30;;;59.55;;
13435;SDS011;6790;49.520;8.504;2023-08-24T10:21:06;66.00;;;61.95;;
13435;SDS011;6790;49.520;8.504;2023-08-24T10:23:33;64.57;;;60.55;;
13435;SDS011;6790;49.520;8.504;2023-08-24T10:26:03;68.70;;;63.92;;
13435;SDS011;6790;49.520;8.504;2023-08-24T10:28:32;78.07;;;73.30;;
13435;SDS011;6790;49.520;8.504;2023-08-24T10:30:59;79.40;;;74.82;;
13435;SDS011;6790;49.520;8.504;2023-08-24T10:33:26;72.45;;;68.03;;
13435;SDS011;6790;49.520;8.504;2023-08-24T10:35:54;66.47;;;62.38;;
13435;SDS011;6790;49.520;8.504;2023-08-24T10:38:23;78.72;;;73.72;;
13435;SDS011;6790;49.520;8.504;2023-08-24T10:41:02;73.45;;;68.93;;
13435;SDS011;6790;49.520;8.504;2023-08-24T10:43:29;72.30;;;67.90;;
13435;SDS011;6790;49.520;8.504;2023-08-24T10:46:01;75.85;;;71.20;;
13435;SDS011;6790;49.520;8.504;2023-08-24T10:48:56;66.88;;;62.50;;
13435;SDS011;6790;49.520;8.504;2023-08-24T10:51:24;65.65;;;61.63;;
13435;SDS011;6790;49.520;8.504;2023-08-24T10:56:19;82.07;;;77.30;;
13435;SDS011;6790;49.520;8.504;2023-08-24T10:58:46;90.75;;;85.30;;
13435;SDS011;6790;49.520;8.504;2023-08-24T11:01:16;85.45;;;80.53;;
13435;SDS011;6790;49.520;8.504;2023-08-24T11:03:49;72.60;;;68.05;;
13435;SDS011;6790;49.520;8.504;2023-08-24T11:06:17;74.60;;;69.75;;
13435;SDS011;6790;49.520;8.504;2023-08-24T11:08:46;78.07;;;73.22;;
13435;SDS011;6790;49.520;8.504;2023-08-24T11:11:22;73.68;;;69.20;;
13435;SDS011;6790;49.520;8.504;2023-08-24T11:16:56;68.32;;;64.15;;
13435;SDS011;6790;49.520;8.504;2023-08-24T11:19:27;73.07;;;68.78;;
13435;SDS011;6790;49.520;8.504;2023-08-24T11:21:55;83.38;;;78.22;;
13435;SDS011;6790;49.520;8.504;2023-08-24T11:24:21;67.25;;;63.00;;
13435;SDS011;6790;49.520;8.504;2023-08-24T11:26:48;84.43;;;79.07;;
13435;SDS011;6790;49.520;8.504;2023-08-24T11:29:14;78.10;;;73.28;;
13435;SDS011;6790;49.520;8.504;2023-08-24T11:31:40;77.40;;;72.80;;
13435;SDS011;6790;49.520;8.504;2023-08-24T11:34:06;72.35;;;67.88;;
13435;SDS011;6790;49.520;8.504;2023-08-24T11:39:27;83.47;;;78.32;;
13435;SDS011;6790;49.520;8.504;2023-08-24T11:41:59;78.47;;;73.45;;
13435;SDS011;6790;49.520;8.504;2023-08-24T11:44:29;78.93;;;73.90;;
13435;SDS011;6790;49.520;8.504;2023-08-24T11:47:12;76.10;;;71.68;;
13435;SDS011;6790;49.520;8.504;2023-08-24T11:49:38;72.22;;;67.93;;
13435;SDS011;6790;49.520;8.504;2023-08-24T11:52:03;64.53;;;60.42;;
13435;SDS011;6790;49.520;8.504;2023-08-24T11:54:32;75.78;;;70.82;;
13435;SDS011;6790;49.520;8.504;2023-08-24T11:56:58;75.15;;;70.35;;
13435;SDS011;6790;49.520;8.504;2023-08-24T11:59:23;77.15;;;72.32;;
13435;SDS011;6790;49.520;8.504;2023-08-24T12:01:50;78.60;;;73.75;;
13435;SDS011;6790;49.520;8.504;2023-08-24T12:04:18;68.80;;;64.55;;
13435;SDS011;6790;49.520;8.504;2023-08-24T12:06:43;77.80;;;72.68;;
13435;SDS011;6790;49.520;8.504;2023-08-24T12:09:09;74.40;;;69.38;;
13435;SDS011;6790;49.520;8.504;2023-08-24T12:11:35;76.53;;;71.50;;
13435;SDS011;6790;49.520;8.504;2023-08-24T12:14:02;73.93;;;69.13;;
13435;SDS011;6790;49.520;8.504;2023-08-24T12:16:30;77.60;;;72.88;;
13435;SDS011;6790;49.520;8.504;2023-08-24T12:18:58;79.57;;;74.60;;
13435;SDS011;6790;49.520;8.504;2023-08-24T12:21:27;76.20;;;71.85;;
13435;SDS011;6790;49.520;8.504;2023-08-24T12:23:55;76.65;;;71.90;;
13435;SDS011;6790;49.520;8.504;2023-08-24T12:26:30;74.43;;;69.72;;
13435;SDS011;6790;49.520;8.504;2023-08-24T12:29:04;73.22;;;68.57;;
13435;SDS011;6790;49.520;8.504;2023-08-24T12:31:32;74.75;;;69.97;;
13435;SDS011;6790;49.520;8.504;2023-08-24T12:33:59;69.32;;;65.00;;
13435;SDS011;6790;49.520;8.504;2023-08-24T12:36:25;83.13;;;77.95;;
13435;SDS011;6790;49.520;8.504;2023-08-24T12:38:51;67.25;;;63.13;;
13435;SDS011;6790;49.520;8.504;2023-08-24T12:41:17;80.90;;;75.47;;
13435;SDS011;6790;49.520;8.504;2023-08-24T12:43:43;87.25;;;81.78;;
13435;SDS011;6790;49.520;8.504;2023-08-24T12:46:08;72.68;;;68.00;;
13435;SDS011;6790;49.520;8.504;2023-08-24T12:48:34;82.85;;;77.38;;
13435;SDS011;6790;49.520;8.504;2023-08-24T12:51:00;77.75;;;73.03;;
13435;SDS011;6790;49.520;8.504;2023-08-24T12:53:26;75.18;;;70.32;;
13435;SDS011;6790;49.520;8.504;2023-08-24T12:55:51;85.53;;;80.50;;
13435;SDS011;6790;49.520;8.504;2023-08-24T12:58:17;85.38;;;80.20;;
13435;SDS011;6790;49.520;8.504;2023-08-24T13:00:44;89.53;;;84.03;;
13435;SDS011;6790;49.520;8.504;2023-08-24T13:03:10;77.10;;;71.80;;
13435;SDS011;6790;49.520;8.504;2023-08-24T13:05:36;85.40;;;80.25;;
13435;SDS011;6790;49.520;8.504;2023-08-24T13:08:02;80.07;;;74.90;;
13435;SDS011;6790;49.520;8.504;2023-08-24T13:10:28;72.25;;;67.90;;
13435;SDS011;6790;49.520;8.504;2023-08-24T13:12:53;83.50;;;78.63;;
13435;SDS011;6790;49.520;8.504;2023-08-24T13:15:19;85.63;;;80.05;;
13435;SDS011;6790;49.520;8.504;2023-08-24T13:17:45;67.88;;;63.55;;
13435;SDS011;6790;49.520;8.504;2023-08-24T13:20:11;83.97;;;78.57;;
13435;SDS011;6790;49.520;8.504;2023-08-24T13:22:37;87.28;;;82.22;;
13435;SDS011;6790;49.520;8.504;2023-08-24T13:25:03;74.80;;;70.00;;
13435;SDS011;6790;49.520;8.504;2023-08-24T13:27:29;69.85;;;65.65;;
13435;SDS011;6790;49.520;8.504;2023-08-24T13:29:56;72.57;;;68.15;;
13435;SDS011;6790;49.520;8.504;2023-08-24T13:32:25;87.05;;;81.70;;
13435;SDS011;6790;49.520;8.504;2023-08-24T13:34:50;77.22;;;72.32;;
13435;SDS011;6790;49.520;8.504;2023-08-24T13:37:19;86.07;;;80.68;;
13435;SDS011;6790;49.520;8.504;2023-08-24T13:39:45;76.55;;;71.95;;
13435;SDS011;6790;49.520;8.504;2023-08-24T13:42:10;84.10;;;78.70;;
13435;SDS011;6790;49.520;8.504;2023-08-24T13:44:37;74.82;;;70.20;;
13435;SDS011;6790;49.520;8.504;2023-08-24T13:47:04;83.90;;;78.22;;
13435;SDS011;6790;49.520;8.504;2023-08-24T13:49:29;90.70;;;85.60;;
13435;SDS011;6790;49.520;8.504;2023-08-24T13:51:55;74.85;;;69.95;;
13435;SDS011;6790;49.520;8.504;2023-08-24T13:54:21;85.53;;;80.30;;
13435;SDS011;6790;49.520;8.504;2023-08-24T13:56:47;82.30;;;76.97;;
13435;SDS011;6790;49.520;8.504;2023-08-24T13:59:15;87.60;;;81.97;;
13435;SDS011;6790;49.520;8.504;2023-08-24T14:01:41;68.55;;;64.38;;
13435;SDS011;6790;49.520;8.504;2023-08-24T14:04:07;67.65;;;63.65;;
13435;SDS011;6790;49.520;8.504;2023-08-24T14:06:33;70.57;;;65.88;;
13435;SDS011;6790;49.520;8.504;2023-08-24T14:09:01;78.10;;;73.53;;
13435;SDS011;6790;49.520;8.504;2023-08-24T14:11:30;77.82;;;72.82;;
13435;SDS011;6790;49.520;8.504;2023-08-24T14:13:57;67.57;;;63.55;;
13435;SDS011;6790;49.520;8.504;2023-08-24T14:16:24;61.10;;;57.33;;
13435;SDS011;6790;49.520;8.504;2023-08-24T14:18:51;70.82;;;66.57;;
13435;SDS011;6790;49.520;8.504;2023-08-24T14:21:17;86.03;;;80.70;;
13435;SDS011;6790;49.520;8.504;2023-08-24T14:23:45;70.53;;;66.15;;
13435;SDS011;6790;49.520;8.504;2023-08-24T14:26:11;57.55;;;54.00;;
13435;SDS011;6790;49.520;8.504;2023-08-24T14:28:47;69.22;;;64.70;;
13435;SDS011;6790;49.520;8.504;2023-08-24T14:31:22;56.80;;;53.60;;
13435;SDS011;6790;49.520;8.504;2023-08-24T14:33:54;65.43;;;61.50;;
13435;SDS011;6790;49.520;8.504;2023-08-24T14:36:20;57.95;;;54.25;;
13435;SDS011;6790;49.520;8.504;2023-08-24T14:38:49;73.88;;;69.18;;
13435;SDS011;6790;49.520;8.504;2023-08-24T14:41:17;51.15;;;47.85;;
13435;SDS011;6790;49.520;8.504;2023-08-24T14:43:42;55.75;;;52.08;;
13435;SDS011;6790;49.520;8.504;2023-08-24T14:46:10;55.88;;;52.15;;
13435;SDS011;6790;49.520;8.504;2023-08-24T14:48:36;63.97;;;59.78;;
13435;SDS011;6790;49.520;8.504;2023-08-24T14:51:01;53.08;;;49.60;;
13435;SDS011;6790;49.520;8.504;2023-08-24T14:53:27;64.05;;;60.00;;
13435;SDS011;6790;49.520;8.504;2023-08-24T14:55:54;56.22;;;52.47;;
13435;SDS011;6790;49.520;8.504;2023-08-24T14:58:21;55.78;;;51.88;;